Time;durP1;ratioP1;P1;durP2;ratioP2;P2;SDS_P1;SDS_P2;PMS_P1;PMS_P2;Temp;Humidity;BMP_temperature;BMP_pressure;BME280_temperature;BME280_humidity;BME280_pressure;Samples;Min_cycle;Max_cycle;Signal;HPM_P1;HPM_P2
2024/02/10 00:02:12;;;;;;;3.30;2.87;;;12.70;99.90;;;;;;4959403;28;22813;-71
2024/02/10 00:04:40;;;;;;;10.60;3.30;;;12.70;99.90;;;;;;4954689;28;20864;-72
2024/02/10 00:07:07;;;;;;;11.67;4.40;;;12.70;99.90;;;;;;4956754;28;20490;-72
2024/02/10 00:09:35;;;;;;;7.17;3.50;;;12.70;99.90;;;;;;4954003;28;20455;-72
2024/02/10 00:12:02;;;;;;;3.17;2.80;;;12.70;99.90;;;;;;4961596;28;20991;-72
2024/02/10 00:14:34;;;;;;;6.97;3.30;;;12.70;99.90;;;;;;4954347;28;20964;-72
2024/02/10 00:17:03;;;;;;;2.50;2.30;;;12.60;99.90;;;;;;4958227;28;20601;-72
2024/02/10 00:19:29;;;;;;;5.93;3.20;;;12.60;99.90;;;;;;4949486;28;20556;-73
2024/02/10 00:21:58;;;;;;;4.37;2.87;;;12.60;99.90;;;;;;4955818;28;20462;-71
2024/02/10 00:24:26;;;;;;;4.63;2.97;;;12.50;99.90;;;;;;4958895;28;20833;-71
2024/02/10 00:26:53;;;;;;;5.57;3.60;;;12.50;99.90;;;;;;4942911;28;20486;-71
2024/02/10 00:29:21;;;;;;;3.50;2.73;;;12.50;99.90;;;;;;4958513;28;20455;-72
2024/02/10 00:31:48;;;;;;;9.07;3.87;;;12.40;99.90;;;;;;4956679;28;20469;-72
2024/02/10 00:34:14;;;;;;;8.03;3.27;;;12.40;99.90;;;;;;4960450;28;20455;-71
2024/02/10 00:36:41;;;;;;;5.30;3.33;;;12.40;99.90;;;;;;4951288;28;20484;-71
2024/02/10 00:39:11;;;;;;;4.13;2.57;;;12.40;99.90;;;;;;4959211;28;20502;-71
2024/02/10 00:41:38;;;;;;;2.00;1.60;;;12.50;99.90;;;;;;4954113;28;20490;-72
2024/02/10 00:44:05;;;;;;;3.30;3.00;;;12.40;99.90;;;;;;4960185;28;20471;-72
2024/02/10 00:46:32;;;;;;;2.87;2.33;;;12.40;99.90;;;;;;4953352;28;20499;-72
2024/02/10 00:49:00;;;;;;;4.30;2.90;;;12.40;99.90;;;;;;4957855;28;20470;-72
2024/02/10 00:51:28;;;;;;;4.30;2.57;;;12.20;99.90;;;;;;4961278;28;20477;-72
2024/02/10 00:53:54;;;;;;;3.13;2.43;;;12.20;99.90;;;;;;4962922;28;20833;-71
2024/02/10 00:56:22;;;;;;;9.57;3.60;;;12.20;99.90;;;;;;4963763;28;20489;-72
2024/02/10 00:58:50;;;;;;;5.50;3.03;;;12.20;99.90;;;;;;4959951;28;20478;-71
2024/02/10 01:01:20;;;;;;;3.73;2.53;;;12.20;99.90;;;;;;4961449;28;20467;-72
2024/02/10 01:03:47;;;;;;;4.40;3.03;;;12.30;99.90;;;;;;4969941;28;20463;-72
2024/02/10 01:06:16;;;;;;;8.40;2.67;;;12.30;99.90;;;;;;4958583;28;20501;-72
2024/02/10 01:08:46;;;;;;;5.97;3.50;;;12.20;99.90;;;;;;4962878;28;20514;-71
2024/02/10 01:11:13;;;;;;;2.90;2.57;;;11.90;99.90;;;;;;4958781;28;20462;-72
2024/02/10 01:13:43;;;;;;;4.73;2.60;;;11.90;99.90;;;;;;4962575;28;20459;-71
2024/02/10 01:16:10;;;;;;;2.63;1.90;;;11.90;99.90;;;;;;4959707;28;20479;-71
2024/02/10 01:18:38;;;;;;;7.03;4.77;;;11.90;99.90;;;;;;4957932;28;20486;-71
2024/02/10 01:21:07;;;;;;;4.03;2.63;;;11.80;99.90;;;;;;4954100;28;20482;-71
2024/02/10 01:23:34;;;;;;;1.87;1.77;;;11.80;99.90;;;;;;4961643;28;20478;-71
2024/02/10 01:26:01;;;;;;;3.20;2.37;;;11.70;99.90;;;;;;4964864;28;21187;-72
2024/02/10 01:28:28;;;;;;;1.97;1.77;;;11.60;99.90;;;;;;4956369;28;20463;-72
2024/02/10 01:30:57;;;;;;;1.87;1.77;;;11.70;99.90;;;;;;4963773;28;20459;-72
2024/02/10 01:33:24;;;;;;;1.70;1.50;;;11.70;99.90;;;;;;4962798;28;20467;-72
2024/02/10 01:35:51;;;;;;;2.10;1.53;;;11.60;99.90;;;;;;4952490;28;20573;-71
2024/02/10 01:38:17;;;;;;;2.03;1.40;;;11.70;99.90;;;;;;4955823;28;20834;-73
2024/02/10 01:40:44;;;;;;;2.27;1.93;;;11.70;99.90;;;;;;4945449;28;20522;-72
2024/02/10 01:43:11;;;;;;;4.10;1.80;;;11.70;99.90;;;;;;4958533;28;20840;-72
2024/02/10 01:45:38;;;;;;;1.40;1.13;;;11.60;99.90;;;;;;4956480;28;20493;-72
2024/02/10 01:48:08;;;;;;;2.20;1.60;;;11.50;99.90;;;;;;4963260;28;20463;-72
2024/02/10 01:50:35;;;;;;;1.30;1.17;;;11.50;99.90;;;;;;4953216;28;20455;-72
2024/02/10 01:53:03;;;;;;;1.30;1.07;;;11.50;99.90;;;;;;4951797;28;20485;-71
2024/02/10 01:55:31;;;;;;;2.20;1.37;;;11.50;99.90;;;;;;4956061;28;21005;-71
2024/02/10 01:58:03;;;;;;;3.13;1.87;;;11.50;99.90;;;;;;4944724;28;20977;-71
2024/02/10 02:00:30;;;;;;;3.07;1.30;;;11.40;99.90;;;;;;4951655;28;21052;-71
2024/02/10 02:02:59;;;;;;;1.40;1.13;;;11.40;99.90;;;;;;4947772;28;20463;-72
2024/02/10 02:05:27;;;;;;;1.20;1.10;;;11.50;99.90;;;;;;4948835;28;21051;-71
2024/02/10 02:07:55;;;;;;;1.77;1.23;;;11.50;99.90;;;;;;4950280;28;20965;-72
2024/02/10 02:10:22;;;;;;;1.70;1.30;;;11.40;99.90;;;;;;4950000;28;20841;-72
2024/02/10 02:12:49;;;;;;;4.30;2.20;;;11.40;99.90;;;;;;4951757;28;23310;-71
2024/02/10 02:15:17;;;;;;;1.77;1.30;;;11.40;99.90;;;;;;4951625;28;21143;-72
2024/02/10 02:17:43;;;;;;;1.70;1.50;;;11.40;99.90;;;;;;4956085;28;22576;-71
2024/02/10 02:20:12;;;;;;;3.00;1.50;;;11.40;99.90;;;;;;4945247;28;20483;-70
2024/02/10 02:22:48;;;;;;;1.30;1.10;;;11.40;99.90;;;;;;4951736;28;20469;-72
2024/02/10 02:25:15;;;;;;;1.10;1.00;;;11.40;99.90;;;;;;4941213;28;20467;-72
2024/02/10 02:27:42;;;;;;;2.30;1.30;;;11.50;99.90;;;;;;4950931;28;20459;-72
2024/02/10 02:30:09;;;;;;;1.80;1.50;;;11.50;99.90;;;;;;4950500;28;20513;-72
2024/02/10 02:32:36;;;;;;;2.70;2.00;;;11.40;99.90;;;;;;4950976;28;20456;-72
2024/02/10 02:35:09;;;;;;;2.47;1.60;;;11.40;99.90;;;;;;4952603;28;20462;-72
2024/02/10 02:37:37;;;;;;;1.80;1.60;;;11.30;99.90;;;;;;4949711;28;20459;-72
2024/02/10 02:40:06;;;;;;;3.03;1.60;;;11.30;99.90;;;;;;4950766;28;20617;-73
2024/02/10 02:42:33;;;;;;;2.07;1.47;;;11.30;99.90;;;;;;4951746;28;20465;-73
2024/02/10 02:45:03;;;;;;;2.80;2.00;;;11.20;99.90;;;;;;4948397;28;20554;-71
2024/02/10 02:47:32;;;;;;;3.50;1.70;;;11.10;99.90;;;;;;4956211;28;20442;-72
2024/02/10 02:49:59;;;;;;;2.07;1.87;;;11.10;99.90;;;;;;4961233;28;20459;-72
2024/02/10 02:52:27;;;;;;;2.13;1.30;;;11.00;99.90;;;;;;4963253;28;20952;-73
2024/02/10 02:54:54;;;;;;;4.77;2.00;;;10.90;99.90;;;;;;4959087;28;20471;-72
2024/02/10 02:57:24;;;;;;;5.97;3.50;;;10.80;99.90;;;;;;4955045;28;20516;-72
2024/02/10 02:59:50;;;;;;;2.23;1.67;;;10.80;99.90;;;;;;4962137;28;20498;-72
2024/02/10 03:02:17;;;;;;;2.20;1.90;;;10.80;99.90;;;;;;4956994;28;20831;-72
2024/02/10 03:04:44;;;;;;;4.90;2.00;;;10.70;99.90;;;;;;4955409;28;20490;-72
2024/02/10 03:07:12;;;;;;;1.90;1.70;;;10.60;99.90;;;;;;4959811;28;20499;-71
2024/02/10 03:09:39;;;;;;;2.30;1.93;;;10.60;99.90;;;;;;4956792;28;20459;-71
2024/02/10 03:12:06;;;;;;;6.40;2.67;;;10.70;99.90;;;;;;4958272;28;20458;-71
2024/02/10 03:14:34;;;;;;;2.13;1.93;;;10.70;99.90;;;;;;4962997;28;20557;-73
2024/02/10 03:17:03;;;;;;;3.10;2.40;;;10.80;99.90;;;;;;4957270;28;20487;-73
2024/02/10 03:19:30;;;;;;;3.07;2.77;;;10.80;99.90;;;;;;4951115;28;20490;-72
2024/02/10 03:22:00;;;;;;;2.87;2.27;;;10.90;99.90;;;;;;4955030;28;20586;-72
2024/02/10 03:24:28;;;;;;;3.07;2.27;;;10.90;99.90;;;;;;4955267;28;20456;-72
2024/02/10 03:26:55;;;;;;;2.37;2.10;;;10.90;99.90;;;;;;4950263;28;20497;-71
2024/02/10 03:29:22;;;;;;;3.30;2.10;;;10.90;99.90;;;;;;4949926;28;20463;-72
2024/02/10 03:31:50;;;;;;;2.97;1.87;;;10.80;99.90;;;;;;4958458;28;20627;-72
2024/02/10 03:34:16;;;;;;;5.03;1.63;;;10.80;99.90;;;;;;4947839;28;20518;-72
2024/02/10 03:36:43;;;;;;;2.63;2.10;;;10.80;99.90;;;;;;4956980;28;20833;-72
2024/02/10 03:39:10;;;;;;;3.33;2.33;;;10.90;99.90;;;;;;4957814;28;20467;-72
2024/02/10 03:41:37;;;;;;;2.80;2.27;;;11.00;99.90;;;;;;4957787;28;20849;-72
2024/02/10 03:44:04;;;;;;;3.20;2.60;;;11.00;99.90;;;;;;4963927;28;20603;-72
2024/02/10 03:46:31;;;;;;;4.17;2.00;;;11.10;99.90;;;;;;4956920;28;20596;-72
2024/02/10 03:48:59;;;;;;;4.37;2.37;;;11.10;99.90;;;;;;4953093;28;20836;-72
2024/02/10 03:51:26;;;;;;;5.00;2.50;;;11.10;99.90;;;;;;4951587;28;20467;-72
2024/02/10 03:53:53;;;;;;;2.87;1.53;;;11.10;99.90;;;;;;4954918;28;20818;-72
2024/02/10 03:56:21;;;;;;;3.57;2.30;;;11.10;99.90;;;;;;4951855;28;20491;-72
2024/02/10 03:58:48;;;;;;;3.37;2.20;;;11.10;99.90;;;;;;4957617;28;20466;-72
2024/02/10 04:01:15;;;;;;;3.53;2.63;;;11.10;99.90;;;;;;4952076;28;20502;-72
2024/02/10 04:03:44;;;;;;;2.80;1.93;;;11.00;99.90;;;;;;4948207;28;20814;-72
2024/02/10 04:06:15;;;;;;;2.73;1.80;;;10.90;99.90;;;;;;4954284;28;20543;-72
2024/02/10 04:08:45;;;;;;;3.27;1.90;;;11.00;99.90;;;;;;4958646;28;20460;-72
2024/02/10 04:11:12;;;;;;;2.87;2.10;;;11.00;99.90;;;;;;4958191;28;20483;-72
2024/02/10 04:13:41;;;;;;;1.90;1.70;;;11.00;99.90;;;;;;4958639;28;20466;-72
2024/02/10 04:16:10;;;;;;;4.73;2.47;;;11.00;99.90;;;;;;4955286;28;20494;-72
2024/02/10 04:18:37;;;;;;;5.20;2.37;;;11.00;99.90;;;;;;4953477;28;20490;-72
2024/02/10 04:21:04;;;;;;;4.43;2.33;;;11.10;99.90;;;;;;4953588;28;21012;-72
2024/02/10 04:23:34;;;;;;;3.20;2.10;;;11.00;99.90;;;;;;4952558;28;20465;-72
2024/02/10 04:26:01;;;;;;;2.83;2.57;;;11.00;99.90;;;;;;4958468;28;20487;-72
2024/02/10 04:28:28;;;;;;;8.30;3.10;;;11.00;99.90;;;;;;4960627;28;20503;-71
2024/02/10 04:30:55;;;;;;;2.53;1.97;;;11.10;99.90;;;;;;4955691;28;20459;-71
2024/02/10 04:33:21;;;;;;;3.83;2.10;;;11.10;99.90;;;;;;4958729;28;20462;-72
2024/02/10 04:35:49;;;;;;;2.27;1.97;;;11.10;99.90;;;;;;4958386;28;20482;-71
2024/02/10 04:38:16;;;;;;;2.57;2.37;;;11.10;99.90;;;;;;4955764;28;20482;-71
2024/02/10 04:40:45;;;;;;;4.47;2.50;;;11.20;99.90;;;;;;4958114;28;20997;-71
2024/02/10 04:43:12;;;;;;;3.40;2.33;;;11.10;99.90;;;;;;4956960;28;21242;-71
2024/02/10 04:45:38;;;;;;;2.83;1.90;;;11.10;99.90;;;;;;4962003;28;20491;-72
2024/02/10 04:48:08;;;;;;;2.33;1.90;;;11.10;99.90;;;;;;4962712;28;20836;-72
2024/02/10 04:50:35;;;;;;;4.13;2.67;;;11.10;99.90;;;;;;4956465;28;20499;-72
2024/02/10 04:53:06;;;;;;;2.57;2.10;;;11.20;99.90;;;;;;4958286;28;21034;-72
2024/02/10 04:55:33;;;;;;;2.93;1.90;;;11.20;99.90;;;;;;4962983;28;20582;-72
2024/02/10 04:58:04;;;;;;;1.60;1.30;;;11.30;99.90;;;;;;4965113;28;20470;-72
2024/02/10 05:00:32;;;;;;;1.40;1.30;;;11.20;99.90;;;;;;4962576;28;21990;-72
2024/02/10 05:03:02;;;;;;;2.23;1.40;;;11.20;99.90;;;;;;4959579;28;20467;-71
2024/02/10 05:05:29;;;;;;;1.70;1.30;;;11.20;99.90;;;;;;4955238;28;21031;-72
2024/02/10 05:07:57;;;;;;;1.60;1.40;;;11.10;99.90;;;;;;4954234;28;20483;-72
2024/02/10 05:10:24;;;;;;;1.50;1.30;;;11.10;99.90;;;;;;4957865;28;20469;-72
2024/02/10 05:12:52;;;;;;;1.63;1.40;;;10.90;99.90;;;;;;4957506;28;20531;-72
2024/02/10 05:15:22;;;;;;;1.40;1.30;;;10.80;99.90;;;;;;4954303;28;20975;-72
2024/02/10 05:17:50;;;;;;;2.00;1.40;;;10.70;99.90;;;;;;4952600;28;20466;-72
2024/02/10 05:20:19;;;;;;;1.70;1.50;;;10.60;99.90;;;;;;4951869;28;20522;-72
2024/02/10 05:22:46;;;;;;;1.50;1.03;;;10.50;99.90;;;;;;4953178;28;20605;-72
2024/02/10 05:25:14;;;;;;;1.60;1.50;;;10.50;99.90;;;;;;4954331;28;20459;-71
2024/02/10 05:27:45;;;;;;;3.60;2.43;;;10.50;99.90;;;;;;4953450;28;20467;-71
2024/02/10 05:30:19;;;;;;;1.80;1.50;;;10.60;99.90;;;;;;4948379;28;20460;-72
2024/02/10 05:32:47;;;;;;;1.77;1.43;;;10.50;99.90;;;;;;4953748;28;20460;-71
2024/02/10 05:35:18;;;;;;;1.67;1.37;;;10.40;99.90;;;;;;4959258;28;20472;-72
2024/02/10 05:37:46;;;;;;;2.57;1.87;;;10.30;99.90;;;;;;4955073;28;20467;-71
2024/02/10 05:40:13;;;;;;;1.30;1.20;;;10.40;99.90;;;;;;4954545;28;20522;-71
2024/02/10 05:42:41;;;;;;;1.57;1.43;;;10.30;99.90;;;;;;4957932;28;20490;-71
2024/02/10 05:45:09;;;;;;;5.20;2.00;;;10.30;99.90;;;;;;4961252;28;20494;-71
2024/02/10 05:47:36;;;;;;;3.10;1.50;;;10.30;99.90;;;;;;4954833;28;20467;-72
2024/02/10 05:50:08;;;;;;;2.03;1.33;;;10.30;99.90;;;;;;4964077;28;20957;-72
2024/02/10 05:52:37;;;;;;;2.23;1.53;;;10.30;99.90;;;;;;4963108;28;20454;-71
2024/02/10 05:55:05;;;;;;;2.13;1.93;;;10.20;99.90;;;;;;4958457;28;20459;-72
2024/02/10 05:57:31;;;;;;;1.67;1.57;;;10.10;99.90;;;;;;4960166;28;20473;-72
2024/02/10 05:59:58;;;;;;;1.70;1.23;;;10.10;99.90;;;;;;4967213;28;20458;-71
2024/02/10 06:02:25;;;;;;;3.23;2.27;;;10.00;99.90;;;;;;4960678;28;20467;-71
2024/02/10 06:04:52;;;;;;;2.57;1.67;;;10.00;99.90;;;;;;4969424;28;20470;-71
2024/02/10 06:07:20;;;;;;;3.10;1.93;;;10.00;99.90;;;;;;4955073;28;20492;-71
2024/02/10 06:09:47;;;;;;;1.67;1.47;;;9.90;99.90;;;;;;4963188;28;20463;-72
2024/02/10 06:12:14;;;;;;;2.60;1.73;;;9.90;99.90;;;;;;4960008;28;20466;-72
2024/02/10 06:14:41;;;;;;;1.90;1.70;;;9.90;99.90;;;;;;4964192;28;20542;-72
2024/02/10 06:17:08;;;;;;;2.60;1.93;;;9.80;99.90;;;;;;4955692;28;20483;-72
2024/02/10 06:19:36;;;;;;;3.10;1.80;;;9.90;99.90;;;;;;4960445;28;21114;-72
2024/02/10 06:22:06;;;;;;;4.27;1.63;;;9.80;99.90;;;;;;4964001;28;20479;-72
2024/02/10 06:24:35;;;;;;;1.50;1.40;;;9.80;99.90;;;;;;4962617;28;20535;-71
2024/02/10 06:27:02;;;;;;;1.43;1.33;;;9.80;99.90;;;;;;4952309;28;20490;-73
2024/02/10 06:29:29;;;;;;;1.40;1.30;;;9.80;99.90;;;;;;4949831;28;20466;-72
2024/02/10 06:31:57;;;;;;;1.83;1.73;;;9.80;99.90;;;;;;4955751;28;20467;-72
2024/02/10 06:34:25;;;;;;;2.37;1.93;;;9.70;99.90;;;;;;4957055;28;20458;-72
2024/02/10 06:36:52;;;;;;;2.50;2.30;;;9.70;99.90;;;;;;4960095;28;21135;-72
2024/02/10 06:39:19;;;;;;;2.80;1.93;;;9.70;99.90;;;;;;4957055;28;21005;-72
2024/02/10 06:41:50;;;;;;;3.70;2.40;;;9.80;99.90;;;;;;4956798;28;20538;-72
2024/02/10 06:44:17;;;;;;;2.80;2.47;;;9.70;99.90;;;;;;4954038;28;20461;-71
2024/02/10 06:46:44;;;;;;;3.70;3.30;;;9.70;99.90;;;;;;4960652;28;21239;-72
2024/02/10 06:49:11;;;;;;;2.77;1.93;;;9.60;99.90;;;;;;4959221;28;20725;-72
2024/02/10 06:51:38;;;;;;;3.30;3.00;;;9.60;99.90;;;;;;4961701;28;20462;-72
2024/02/10 06:54:06;;;;;;;3.17;2.60;;;9.50;99.90;;;;;;4964517;28;20837;-72
2024/02/10 06:56:33;;;;;;;4.00;3.50;;;9.50;99.90;;;;;;4966886;28;20493;-72
2024/02/10 06:59:02;;;;;;;3.07;2.23;;;9.50;99.90;;;;;;4963931;28;20480;-72
2024/02/10 07:01:29;;;;;;;2.93;2.50;;;9.50;99.90;;;;;;4963845;28;20487;-72
2024/02/10 07:03:57;;;;;;;3.83;1.90;;;9.50;99.90;;;;;;4961920;28;20490;-71
2024/02/10 07:06:27;;;;;;;2.53;2.33;;;9.50;99.90;;;;;;4963277;28;20541;-72
2024/02/10 07:08:56;;;;;;;3.87;2.30;;;9.50;99.90;;;;;;4961387;28;20459;-72
2024/02/10 07:11:23;;;;;;;3.90;3.50;;;9.50;99.90;;;;;;4959296;28;20455;-72
2024/02/10 07:13:49;;;;;;;3.77;2.50;;;9.50;99.90;;;;;;4959019;28;20459;-72
2024/02/10 07:16:17;;;;;;;5.30;2.53;;;9.50;99.90;;;;;;4959631;28;20846;-72
2024/02/10 07:18:47;;;;;;;3.47;2.50;;;9.50;99.90;;;;;;4954598;28;20471;-72
2024/02/10 07:21:15;;;;;;;3.97;2.93;;;9.50;99.90;;;;;;4951155;28;20483;-72
2024/02/10 07:23:42;;;;;;;3.97;2.87;;;9.50;99.90;;;;;;4949187;28;20468;-72
2024/02/10 07:26:08;;;;;;;6.73;2.50;;;9.60;99.90;;;;;;4946539;28;20491;-72
2024/02/10 07:28:36;;;;;;;5.80;3.20;;;9.90;99.90;;;;;;4949635;28;21073;-72
2024/02/10 07:31:02;;;;;;;4.37;2.30;;;10.20;99.90;;;;;;4954604;28;20486;-72
2024/02/10 07:33:30;;;;;;;4.40;2.60;;;10.40;99.90;;;;;;4949809;28;21120;-71
2024/02/10 07:36:00;;;;;;;2.90;2.60;;;10.60;99.90;;;;;;4953115;28;20479;-72
2024/02/10 07:38:27;;;;;;;2.77;1.80;;;10.70;99.90;;;;;;4951016;28;20606;-72
2024/02/10 07:40:54;;;;;;;3.30;2.67;;;10.70;99.90;;;;;;4952662;28;20482;-72
2024/02/10 07:43:21;;;;;;;3.77;2.60;;;10.80;99.90;;;;;;4956047;28;20497;-73
2024/02/10 07:45:52;;;;;;;2.03;1.80;;;10.80;99.90;;;;;;4956906;28;20486;-73
2024/02/10 07:48:19;;;;;;;3.07;1.67;;;10.90;99.90;;;;;;4961641;28;20466;-73
2024/02/10 07:50:49;;;;;;;2.17;1.60;;;11.00;99.90;;;;;;4957148;28;20459;-71
2024/02/10 07:53:16;;;;;;;3.27;1.73;;;11.20;99.90;;;;;;4964269;28;20618;-72
2024/02/10 07:55:46;;;;;;;2.33;1.70;;;11.10;99.90;;;;;;4962428;28;20479;-72
2024/02/10 07:58:14;;;;;;;1.50;1.40;;;11.10;99.90;;;;;;4967994;28;20459;-73
2024/02/10 08:00:41;;;;;;;1.50;1.40;;;11.30;99.90;;;;;;4964174;28;20475;-71
2024/02/10 08:03:08;;;;;;;1.90;1.63;;;11.30;99.90;;;;;;4961776;28;20481;-72
2024/02/10 08:05:37;;;;;;;2.47;1.47;;;11.40;99.90;;;;;;4964572;28;20486;-72
2024/02/10 08:08:09;;;;;;;2.23;2.03;;;11.40;99.90;;;;;;4964059;28;20546;-72
2024/02/10 08:10:35;;;;;;;3.10;2.33;;;11.60;99.90;;;;;;4961979;28;20478;-72
2024/02/10 08:13:02;;;;;;;1.60;1.40;;;11.70;99.90;;;;;;4964842;28;20549;-72
2024/02/10 08:15:30;;;;;;;1.70;1.50;;;11.70;99.90;;;;;;4959648;28;20598;-72
2024/02/10 08:18:08;;;;;;;2.00;1.80;;;11.80;99.90;;;;;;4974837;23;21546;-71
2024/02/10 08:20:35;;;;;;;2.23;1.57;;;12.00;99.90;;;;;;4976874;28;20461;-74
2024/02/10 08:23:02;;;;;;;2.00;1.40;;;12.50;99.90;;;;;;4965006;28;20454;-72
2024/02/10 08:25:30;;;;;;;2.77;1.57;;;12.50;99.90;;;;;;4966310;28;20933;-72
2024/02/10 08:27:59;;;;;;;2.23;1.67;;;12.60;99.90;;;;;;4952625;28;20464;-73
2024/02/10 08:30:27;;;;;;;2.67;1.90;;;12.80;99.90;;;;;;4951909;28;20467;-72
2024/02/10 08:32:56;;;;;;;3.87;1.47;;;13.00;99.90;;;;;;4954611;28;20458;-72
2024/02/10 08:35:27;;;;;;;4.43;1.83;;;13.70;99.90;;;;;;4953069;28;20986;-74
2024/02/10 08:37:54;;;;;;;2.00;1.50;;;14.40;99.90;;;;;;4953047;28;20467;-72
2024/02/10 08:40:21;;;;;;;3.73;1.67;;;14.90;99.90;;;;;;4955825;28;20470;-72
2024/02/10 08:42:50;;;;;;;1.50;1.40;;;15.60;99.90;;;;;;4951916;28;20502;-72
2024/02/10 08:45:16;;;;;;;2.13;1.40;;;16.10;99.90;;;;;;4951171;28;21055;-72
2024/02/10 08:47:43;;;;;;;1.10;0.80;;;16.20;99.90;;;;;;4957003;28;20809;-72
2024/02/10 08:50:12;;;;;;;1.73;1.20;;;16.90;99.90;;;;;;4957998;28;20473;-73
2024/02/10 08:52:39;;;;;;;1.83;1.40;;;17.30;99.90;;;;;;4958441;28;21063;-71
2024/02/10 08:55:07;;;;;;;1.43;0.97;;;17.80;99.90;;;;;;4961392;28;20479;-72
2024/02/10 08:57:35;;;;;;;1.60;1.30;;;18.30;99.90;;;;;;4958596;28;20519;-72
2024/02/10 09:00:10;;;;;;;1.83;1.33;;;18.20;99.90;;;;;;4961649;28;20471;-73
2024/02/10 09:02:37;;;;;;;1.50;1.30;;;18.20;99.90;;;;;;4952191;28;20719;-73
2024/02/10 09:05:06;;;;;;;1.50;1.10;;;18.00;99.90;;;;;;4960192;28;20470;-73
2024/02/10 09:07:33;;;;;;;4.97;2.23;;;17.90;99.90;;;;;;4957165;28;20467;-72
2024/02/10 09:09:59;;;;;;;1.90;1.40;;;18.20;99.90;;;;;;4965057;28;20474;-72
2024/02/10 09:12:27;;;;;;;2.30;1.30;;;18.90;99.90;;;;;;4962433;28;20801;-72
2024/02/10 09:14:53;;;;;;;1.70;1.20;;;19.20;99.90;;;;;;4954917;28;20960;-72
2024/02/10 09:17:23;;;;;;;1.93;1.40;;;19.50;99.90;;;;;;4951987;28;20513;-72
2024/02/10 09:19:50;;;;;;;1.90;1.60;;;19.30;99.90;;;;;;4956697;28;20507;-72
2024/02/10 09:22:17;;;;;;;1.53;1.13;;;19.20;99.90;;;;;;4956132;28;20489;-72
2024/02/10 09:24:44;;;;;;;2.23;1.60;;;19.20;99.90;;;;;;4955126;28;20463;-72
2024/02/10 09:27:11;;;;;;;1.73;1.13;;;19.70;99.90;;;;;;4952505;28;20529;-73
2024/02/10 09:29:38;;;;;;;1.47;1.17;;;20.40;99.90;;;;;;4953274;28;20486;-73
2024/02/10 09:32:05;;;;;;;2.33;1.53;;;20.30;99.90;;;;;;4954746;28;20460;-73
2024/02/10 09:34:33;;;;;;;1.67;1.40;;;18.80;99.90;;;;;;4955312;28;20472;-73
2024/02/10 09:37:00;;;;;;;2.33;1.83;;;18.90;99.90;;;;;;4949647;28;21028;-73
2024/02/10 09:39:27;;;;;;;2.03;1.03;;;19.10;99.90;;;;;;4957897;28;20473;-73
2024/02/10 09:41:56;;;;;;;1.63;1.30;;;19.20;99.90;;;;;;4951289;28;20821;-73
2024/02/10 09:44:23;;;;;;;1.20;1.00;;;19.30;99.90;;;;;;4958777;28;20466;-73
2024/02/10 09:46:51;;;;;;;1.47;1.10;;;19.60;99.90;;;;;;4956943;28;20495;-72
2024/02/10 09:49:22;;;;;;;1.87;1.40;;;19.50;99.90;;;;;;4947253;28;20463;-72
2024/02/10 09:51:51;;;;;;;1.50;0.90;;;19.70;99.90;;;;;;4957843;28;21060;-72
2024/02/10 09:54:18;;;;;;;1.27;1.07;;;20.40;99.90;;;;;;4955111;28;20468;-72
2024/02/10 09:56:45;;;;;;;7.70;1.57;;;20.40;99.90;;;;;;4955568;28;20486;-72
2024/02/10 09:59:17;;;;;;;3.67;2.67;;;20.60;99.90;;;;;;4953339;28;20471;-72
2024/02/10 10:01:45;;;;;;;1.47;1.10;;;20.50;99.90;;;;;;4952770;28;20467;-72
2024/02/10 10:04:11;;;;;;;1.93;1.10;;;20.40;99.90;;;;;;4958843;28;20480;-73
2024/02/10 10:06:43;;;;;;;2.13;1.50;;;21.00;99.90;;;;;;4957051;28;22518;-73
2024/02/10 10:09:12;;;;;;;1.70;1.20;;;21.50;99.90;;;;;;4955350;28;20531;-73
2024/02/10 10:11:40;;;;;;;1.40;1.30;;;22.00;99.90;;;;;;4954903;28;20571;-73
2024/02/10 10:14:08;;;;;;;2.07;1.30;;;21.40;99.90;;;;;;4954409;28;20467;-72
2024/02/10 10:16:36;;;;;;;3.20;1.23;;;20.60;99.90;;;;;;4962605;28;20592;-72
2024/02/10 10:19:03;;;;;;;1.20;1.10;;;21.50;99.90;;;;;;4955424;28;20464;-72
2024/02/10 10:21:31;;;;;;;1.63;1.03;;;21.90;99.90;;;;;;4955250;28;20495;-72
2024/02/10 10:23:58;;;;;;;1.37;1.03;;;21.60;99.90;;;;;;4953307;28;20569;-72
2024/02/10 10:26:27;;;;;;;1.83;1.33;;;21.50;99.90;;;;;;4955366;28;20490;-72
2024/02/10 10:28:53;;;;;;;2.10;1.53;;;22.00;99.90;;;;;;4952617;28;20463;-72
2024/02/10 10:31:21;;;;;;;1.80;1.70;;;22.20;99.90;;;;;;4959801;28;20813;-72
2024/02/10 10:33:49;;;;;;;2.60;1.10;;;22.30;99.90;;;;;;4958901;28;20867;-71
2024/02/10 10:36:17;;;;;;;1.53;1.43;;;22.00;99.90;;;;;;4956419;28;20488;-73
2024/02/10 10:38:45;;;;;;;2.30;1.03;;;20.90;99.90;;;;;;4961892;28;20465;-73
2024/02/10 10:41:14;;;;;;;1.20;1.10;;;20.60;99.90;;;;;;4955198;28;20607;-71
2024/02/10 10:43:43;;;;;;;3.00;1.43;;;20.00;99.90;;;;;;4953048;28;20893;-73
2024/02/10 10:46:12;;;;;;;1.23;1.00;;;19.50;99.90;;;;;;4954092;28;20494;-72
2024/02/10 10:48:39;;;;;;;1.70;1.53;;;19.30;99.90;;;;;;4954589;28;20470;-72
2024/02/10 10:51:08;;;;;;;1.40;1.17;;;19.40;99.90;;;;;;4946001;28;20573;-72
2024/02/10 10:53:41;;;;;;;3.70;1.20;;;19.60;99.90;;;;;;4953737;28;20474;-72
2024/02/10 10:56:10;;;;;;;1.50;1.23;;;19.50;99.90;;;;;;4958182;28;20586;-73
2024/02/10 10:58:44;;;;;;;1.40;1.10;;;19.80;99.90;;;;;;4962242;28;20467;-72
2024/02/10 11:01:15;;;;;;;1.50;1.00;;;20.00;99.90;;;;;;4954459;28;20479;-72
2024/02/10 11:03:42;;;;;;;1.40;1.00;;;19.70;99.90;;;;;;4963262;28;20961;-72
2024/02/10 11:06:11;;;;;;;1.77;1.10;;;20.20;99.90;;;;;;4957376;28;20551;-72
2024/02/10 11:08:40;;;;;;;1.80;1.40;;;20.80;99.90;;;;;;4950895;28;20488;-73
2024/02/10 11:11:09;;;;;;;1.30;1.00;;;21.10;99.90;;;;;;4957975;28;20530;-72
2024/02/10 11:13:38;;;;;;;1.17;0.97;;;21.40;99.90;;;;;;4950658;28;20467;-72
2024/02/10 11:16:12;;;;;;;4.60;1.20;;;20.90;99.90;;;;;;4952914;28;20506;-72
2024/02/10 11:18:39;;;;;;;1.93;1.60;;;20.50;99.90;;;;;;4953489;28;20474;-72
2024/02/10 11:21:21;;;;;;;1.20;1.00;;;20.90;99.90;;;;;;4951897;28;20547;-72
2024/02/10 11:23:59;;;;;;;3.33;1.37;;;21.20;99.90;;;;;;4954870;28;20472;-72
2024/02/10 11:26:27;;;;;;;1.90;1.17;;;20.90;99.90;;;;;;4953300;28;20569;-72
2024/02/10 11:29:01;;;;;;;1.70;1.20;;;20.60;99.90;;;;;;4953656;28;20522;-72
2024/02/10 11:31:33;;;;;;;1.20;0.90;;;21.20;99.90;;;;;;4952799;28;20456;-73
2024/02/10 11:34:04;;;;;;;2.23;1.20;;;21.90;99.90;;;;;;4953130;28;20978;-73
2024/02/10 11:36:32;;;;;;;1.30;1.03;;;21.90;99.90;;;;;;4947695;28;20487;-72
2024/02/10 11:38:59;;;;;;;1.20;0.90;;;21.70;99.90;;;;;;4950353;28;20503;-73
2024/02/10 11:41:27;;;;;;;2.10;1.73;;;21.50;99.90;;;;;;4951196;28;20474;-73
2024/02/10 11:43:55;;;;;;;1.50;1.20;;;21.40;99.90;;;;;;4946706;28;20578;-73
2024/02/10 11:46:21;;;;;;;2.03;1.30;;;21.30;99.90;;;;;;4956213;28;20479;-73
2024/02/10 11:48:50;;;;;;;2.07;1.20;;;21.40;99.90;;;;;;4941277;28;20624;-73
2024/02/10 11:51:22;;;;;;;1.57;1.10;;;21.40;99.90;;;;;;4947673;28;20645;-73
2024/02/10 11:53:49;;;;;;;1.60;1.33;;;22.30;99.90;;;;;;4947056;28;20458;-72
2024/02/10 11:56:17;;;;;;;1.70;1.50;;;22.30;99.90;;;;;;4944118;28;20492;-72
2024/02/10 11:58:45;;;;;;;1.30;1.10;;;22.00;99.90;;;;;;4960682;28;20478;-73
2024/02/10 12:01:13;;;;;;;2.57;1.33;;;22.40;99.90;;;;;;4948869;28;20594;-69
2024/02/10 12:03:42;;;;;;;2.40;1.30;;;22.10;99.90;;;;;;4954652;28;20494;-69
2024/02/10 12:06:12;;;;;;;1.43;1.20;;;21.60;99.90;;;;;;4951884;28;20489;-69
2024/02/10 12:08:42;;;;;;;1.70;1.13;;;20.80;99.90;;;;;;4948166;28;20555;-69
2024/02/10 12:11:09;;;;;;;1.33;1.00;;;20.60;99.90;;;;;;4956873;28;20467;-69
2024/02/10 12:13:38;;;;;;;1.80;1.10;;;20.20;99.90;;;;;;4960161;28;20465;-69
2024/02/10 12:16:10;;;;;;;1.97;1.40;;;20.30;99.90;;;;;;4953114;28;20511;-69
2024/02/10 12:18:38;;;;;;;1.63;1.10;;;20.60;99.90;;;;;;4953791;28;20482;-70
2024/02/10 12:21:06;;;;;;;1.50;1.10;;;20.40;99.90;;;;;;4954021;28;20467;-69
2024/02/10 12:23:34;;;;;;;1.53;1.30;;;20.80;99.90;;;;;;4953485;28;20479;-70
2024/02/10 12:26:02;;;;;;;1.50;1.10;;;21.00;99.90;;;;;;4952997;28;20577;-70
2024/02/10 12:28:29;;;;;;;1.50;1.10;;;20.80;99.90;;;;;;4959089;28;21041;-70
2024/02/10 12:30:56;;;;;;;3.77;1.40;;;20.80;99.90;;;;;;4959017;28;20493;-69
2024/02/10 12:33:24;;;;;;;2.07;1.20;;;20.60;99.90;;;;;;4957857;28;20459;-69
2024/02/10 12:35:53;;;;;;;2.00;1.60;;;20.10;99.90;;;;;;4955496;28;20501;-69
2024/02/10 12:38:20;;;;;;;2.03;1.20;;;19.70;99.90;;;;;;4958421;28;20586;-70
2024/02/10 12:40:48;;;;;;;1.97;1.33;;;19.70;99.90;;;;;;4956332;28;20992;-70
2024/02/10 12:43:15;;;;;;;2.23;2.03;;;19.90;99.90;;;;;;4956892;28;20478;-70
2024/02/10 12:45:47;;;;;;;1.47;1.20;;;20.20;99.90;;;;;;4953683;28;20490;-70
2024/02/10 12:48:14;;;;;;;2.13;1.60;;;19.80;99.90;;;;;;4959070;28;20463;-70
2024/02/10 12:50:43;;;;;;;2.73;1.37;;;19.50;99.90;;;;;;4954130;28;20582;-70
2024/02/10 12:53:10;;;;;;;1.63;1.03;;;19.80;99.90;;;;;;4952422;28;21013;-70